Fox Creek, Idaho
Current Conditions -  °F | °C
As of 10:56 PM on Wednesday 22 Oct 2014 (Local Time) from KDIJ Reporting Station
Clear Clear  
Wind Chill: 27°   Ceiling: Unl
Heat Index: 32°   Visibility: 10mi
Dew Point: 24°   Wind: 5mph
Humidity: 73%   Direction: 130°SE
Pressure: 30.21"   Gusts: NA
Location:  43.6065°N, 111.138°W
Report Text: KDIJ 230456Z AUTO 13004KT 10SM CLR 00/M04 A3021 RMK AO2 T00001044 SLP207
Loading
Personal Weather Stations






























Interactive Weather Map
Tropical Storm Tracking
New forecast layout! Learn more

10-Day Weather Forecast

Advertisements
Track Severe Weather on mobile